Time;durP1;ratioP1;P1;durP2;ratioP2;P2;SDS_P1;SDS_P2;PMS_P1;PMS_P2;Temp;Humidity;BMP_temperature;BMP_pressure;BME280_temperature;BME280_humidity;BME280_pressure;Samples;Min_cycle;Max_cycle;Signal;HPM_P1;HPM_P2
2023/05/02 04:05:21;;;;;;;1.80;1.70;;;8.40;99.90;;;;;;5432320;23;20330;-70
2023/05/02 04:07:46;;;;;;;3.40;2.83;;;8.40;99.90;;;;;;4955966;29;20208;-70
2023/05/02 04:10:15;;;;;;;3.00;2.80;;;8.40;99.90;;;;;;4956198;29;20180;-71
2023/05/02 04:12:42;;;;;;;2.63;2.42;;;8.50;99.90;;;;;;4939172;29;20181;-71
2023/05/02 04:15:08;;;;;;;3.45;2.70;;;8.50;99.90;;;;;;4956020;29;20542;-71
2023/05/02 04:17:34;;;;;;;3.30;3.00;;;8.60;99.90;;;;;;4939024;29;20288;-70
2023/05/02 04:19:59;;;;;;;2.93;2.73;;;8.60;99.90;;;;;;4938463;29;20268;-70
2023/05/02 04:22:25;;;;;;;3.03;2.20;;;8.60;99.90;;;;;;4955792;29;20161;-70
2023/05/02 04:24:51;;;;;;;2.30;2.13;;;8.70;99.90;;;;;;4937925;29;20208;-72
2023/05/02 04:27:16;;;;;;;2.20;2.00;;;8.80;99.90;;;;;;4955597;29;20173;-70
2023/05/02 04:29:42;;;;;;;3.27;2.97;;;8.90;99.90;;;;;;4955646;29;20165;-70
2023/05/02 04:32:08;;;;;;;3.10;2.83;;;8.90;99.90;;;;;;4955581;29;20176;-70
2023/05/02 04:34:33;;;;;;;2.13;2.03;;;8.90;99.90;;;;;;4954040;29;20219;-70
2023/05/02 04:37:00;;;;;;;3.17;2.93;;;8.90;99.90;;;;;;4955860;29;20172;-70
2023/05/02 04:39:25;;;;;;;3.45;2.90;;;9.00;99.90;;;;;;4955723;29;20165;-70
2023/05/02 04:41:51;;;;;;;2.83;2.73;;;9.00;99.90;;;;;;4955732;29;20659;-70
2023/05/02 04:44:17;;;;;;;2.50;2.30;;;9.00;99.90;;;;;;4955308;29;20188;-70
2023/05/02 04:46:43;;;;;;;3.27;2.60;;;9.00;99.90;;;;;;4955122;29;20197;-70
2023/05/02 04:49:09;;;;;;;2.50;2.30;;;9.10;99.90;;;;;;4955439;29;20196;-71
2023/05/02 04:51:35;;;;;;;3.63;3.33;;;9.10;99.90;;;;;;4955387;29;20524;-70
2023/05/02 04:54:00;;;;;;;5.57;3.03;;;9.10;99.90;;;;;;4955137;29;20169;-70
2023/05/02 04:56:26;;;;;;;2.87;2.50;;;9.00;99.90;;;;;;4955127;29;20504;-70
2023/05/02 04:58:52;;;;;;;3.47;2.80;;;9.10;99.90;;;;;;4955447;29;20199;-70
2023/05/02 05:01:17;;;;;;;2.30;2.10;;;9.10;99.90;;;;;;4955310;29;20252;-71
2023/05/02 05:03:43;;;;;;;3.43;3.13;;;9.10;99.90;;;;;;4954920;29;20169;-71
2023/05/02 05:06:08;;;;;;;2.93;2.73;;;9.10;99.90;;;;;;4954806;29;20712;-70
2023/05/02 05:08:34;;;;;;;3.73;2.43;;;9.20;99.90;;;;;;4955182;29;20320;-70
2023/05/02 05:11:00;;;;;;;4.43;3.57;;;9.20;99.90;;;;;;4938239;29;20172;-70
2023/05/02 05:13:27;;;;;;;3.90;3.60;;;9.20;99.90;;;;;;4937837;29;20647;-70
2023/05/02 05:15:55;;;;;;;3.75;3.13;;;9.20;99.90;;;;;;4937892;29;20287;-72
2023/05/02 05:18:21;;;;;;;3.78;3.47;;;9.20;99.90;;;;;;4955240;29;20207;-69
2023/05/02 05:20:47;;;;;;;2.80;2.60;;;9.30;99.90;;;;;;4938050;29;20208;-70
2023/05/02 05:23:14;;;;;;;3.50;3.20;;;9.30;99.90;;;;;;4950159;29;20252;-70
2023/05/02 05:25:40;;;;;;;3.88;3.47;;;9.30;99.90;;;;;;4954961;29;20607;-70
2023/05/02 05:28:06;;;;;;;3.00;2.67;;;9.30;99.90;;;;;;4955069;29;20177;-69
2023/05/02 05:30:31;;;;;;;3.27;3.00;;;9.30;99.90;;;;;;4955127;29;20169;-69
2023/05/02 05:32:57;;;;;;;2.80;2.60;;;9.40;99.90;;;;;;4956800;28;20172;-69
2023/05/02 05:35:23;;;;;;;2.87;2.67;;;9.40;99.90;;;;;;4958098;29;20205;-69
2023/05/02 05:37:49;;;;;;;4.97;3.80;;;9.50;99.90;;;;;;4958512;29;20176;-68
2023/05/02 05:40:15;;;;;;;2.97;2.77;;;9.60;99.90;;;;;;4958552;29;20180;-69
2023/05/02 05:42:41;;;;;;;3.00;2.80;;;9.70;99.90;;;;;;4958831;29;20519;-70
2023/05/02 05:45:08;;;;;;;3.53;3.30;;;9.90;99.90;;;;;;4958321;29;20211;-69
2023/05/02 05:47:34;;;;;;;3.33;3.00;;;9.90;99.90;;;;;;4958593;29;20413;-68
2023/05/02 05:49:59;;;;;;;3.00;2.60;;;10.00;99.90;;;;;;4958824;29;20661;-68
2023/05/02 05:52:25;;;;;;;5.03;2.90;;;10.10;99.90;;;;;;4958726;29;20174;-68
2023/05/02 05:54:55;;;;;;;4.38;2.97;;;10.30;99.90;;;;;;4957864;29;20200;-68
2023/05/02 05:57:22;;;;;;;3.85;3.55;;;10.50;99.90;;;;;;4958745;29;20526;-68
2023/05/02 05:59:48;;;;;;;4.47;4.07;;;10.60;99.90;;;;;;4958355;29;20265;-68
2023/05/02 06:02:14;;;;;;;7.00;3.73;;;10.80;99.90;;;;;;4958466;29;20273;-70
2023/05/02 06:04:40;;;;;;;4.70;2.93;;;10.80;99.90;;;;;;4940592;29;20221;-69
2023/05/02 06:07:08;;;;;;;3.47;3.17;;;10.80;99.90;;;;;;4940887;29;20500;-68
2023/05/02 06:09:34;;;;;;;4.03;3.73;;;10.90;99.90;;;;;;4957847;29;20186;-72
2023/05/02 06:12:01;;;;;;;3.53;3.23;;;11.00;99.90;;;;;;4947389;29;20770;-69
2023/05/02 06:14:27;;;;;;;5.53;3.70;;;11.10;99.90;;;;;;4938614;29;20192;-70
2023/05/02 06:16:53;;;;;;;4.50;3.80;;;11.20;99.90;;;;;;4939122;29;20922;-69
2023/05/02 06:19:19;;;;;;;3.17;2.90;;;11.30;99.90;;;;;;4939070;29;20575;-70
2023/05/02 06:21:45;;;;;;;3.63;3.33;;;11.40;99.90;;;;;;4938638;29;20420;-70
2023/05/02 06:24:10;;;;;;;3.53;3.23;;;11.50;99.90;;;;;;4938401;29;20196;-70
2023/05/02 06:26:36;;;;;;;4.50;4.10;;;11.70;99.90;;;;;;4921619;29;20248;-70
2023/05/02 06:29:02;;;;;;;4.53;4.23;;;11.80;99.90;;;;;;4938960;29;20202;-69
2023/05/02 06:31:28;;;;;;;3.80;3.57;;;12.00;99.90;;;;;;4938819;29;20304;-69
2023/05/02 06:33:53;;;;;;;5.90;4.90;;;12.10;99.90;;;;;;4938172;29;20753;-70
2023/05/02 06:36:19;;;;;;;4.07;3.60;;;12.20;99.90;;;;;;4938814;29;20184;-69
2023/05/02 06:38:45;;;;;;;5.37;4.87;;;12.40;99.90;;;;;;4938724;29;20179;-70
2023/05/02 06:41:14;;;;;;;3.40;3.10;;;12.60;99.90;;;;;;4938458;29;20256;-70
2023/05/02 06:43:39;;;;;;;4.73;3.97;;;12.90;99.90;;;;;;4937778;29;20182;-69
2023/05/02 06:46:05;;;;;;;3.77;3.47;;;13.10;99.90;;;;;;4938451;29;20453;-70
2023/05/02 06:48:31;;;;;;;4.27;3.97;;;13.50;99.90;;;;;;4938618;29;20654;-70
2023/05/02 06:50:56;;;;;;;4.40;4.00;;;13.90;99.90;;;;;;4938650;29;20229;-70
2023/05/02 06:53:22;;;;;;;4.13;3.77;;;14.20;99.90;;;;;;4938546;29;20176;-70
2023/05/02 06:55:48;;;;;;;4.77;4.13;;;14.50;99.90;;;;;;4938414;29;20198;-70
2023/05/02 06:58:13;;;;;;;3.57;3.23;;;14.70;99.90;;;;;;4938380;29;20176;-70
2023/05/02 07:00:39;;;;;;;4.40;4.10;;;14.90;99.90;;;;;;4938374;29;20217;-70
2023/05/02 07:03:05;;;;;;;3.67;3.33;;;15.00;99.90;;;;;;4938356;29;20239;-69
2023/05/02 07:05:31;;;;;;;4.27;3.97;;;15.10;99.90;;;;;;4937915;29;20889;-68
2023/05/02 07:07:56;;;;;;;6.00;4.40;;;15.00;99.90;;;;;;4938243;29;20727;-69
2023/05/02 07:10:22;;;;;;;4.17;3.60;;;15.10;99.90;;;;;;4938380;29;20175;-69
2023/05/02 07:12:47;;;;;;;4.57;4.13;;;15.00;99.90;;;;;;4938158;29;20214;-70
2023/05/02 07:15:15;;;;;;;4.27;3.90;;;15.00;99.90;;;;;;4937573;29;20224;-69
2023/05/02 07:17:41;;;;;;;4.63;3.30;;;14.90;99.90;;;;;;4937868;29;20545;-70
2023/05/02 07:20:07;;;;;;;5.53;4.60;;;14.70;99.90;;;;;;4937772;29;20393;-69
2023/05/02 07:22:33;;;;;;;4.53;4.07;;;14.70;99.90;;;;;;4937953;29;20176;-69
2023/05/02 07:25:01;;;;;;;6.40;5.37;;;14.60;99.90;;;;;;4937596;29;20984;-69
2023/05/02 07:27:27;;;;;;;3.73;3.43;;;14.70;99.90;;;;;;4937808;29;20209;-69
2023/05/02 07:29:53;;;;;;;4.93;4.43;;;14.70;99.90;;;;;;4937844;29;20443;-69
2023/05/02 07:32:20;;;;;;;4.60;4.20;;;14.70;99.90;;;;;;4937757;29;20415;-69
2023/05/02 07:34:46;;;;;;;4.47;3.57;;;14.70;99.90;;;;;;4937332;29;20194;-69
2023/05/02 07:37:12;;;;;;;5.90;4.73;;;14.80;99.90;;;;;;4937782;29;20405;-70
2023/05/02 07:39:37;;;;;;;3.60;3.30;;;14.60;99.90;;;;;;4937834;29;20472;-69
2023/05/02 07:42:03;;;;;;;6.07;3.40;;;14.60;99.90;;;;;;4937515;29;20248;-70
2023/05/02 07:44:29;;;;;;;5.27;4.77;;;14.60;99.90;;;;;;4937044;29;20247;-70
2023/05/02 07:46:54;;;;;;;5.37;4.40;;;14.60;99.90;;;;;;4937525;29;20193;-69
2023/05/02 07:49:20;;;;;;;4.73;4.33;;;14.60;99.90;;;;;;4937398;29;20175;-69
2023/05/02 07:51:45;;;;;;;4.37;4.00;;;14.80;99.90;;;;;;4937112;29;20175;-69
2023/05/02 07:54:19;;;;;;;5.07;4.57;;;14.90;99.90;;;;;;4936856;29;20664;-69
2023/05/02 07:56:45;;;;;;;5.50;4.87;;;14.80;99.90;;;;;;4937013;29;20202;-70
2023/05/02 07:59:11;;;;;;;6.97;4.83;;;14.70;99.90;;;;;;4937267;29;20402;-70
2023/05/02 08:01:37;;;;;;;5.50;4.93;;;14.60;99.90;;;;;;4937177;29;20733;-69
2023/05/02 08:04:03;;;;;;;5.43;4.80;;;14.50;99.90;;;;;;4936848;29;20186;-70
2023/05/02 08:06:29;;;;;;;5.83;5.33;;;14.60;99.90;;;;;;4936867;29;20469;-70
2023/05/02 08:08:55;;;;;;;5.97;5.37;;;14.60;99.90;;;;;;4937043;29;20743;-70
2023/05/02 08:11:24;;;;;;;6.17;5.20;;;14.70;99.90;;;;;;4937172;29;20556;-69
2023/05/02 08:13:50;;;;;;;6.33;5.73;;;14.80;99.90;;;;;;4936701;29;20885;-69
2023/05/02 08:16:15;;;;;;;6.40;4.90;;;14.80;99.90;;;;;;4936960;29;20422;-70
2023/05/02 08:18:41;;;;;;;5.70;5.20;;;14.90;99.90;;;;;;4936812;29;20894;-69
2023/05/02 08:21:07;;;;;;;8.07;5.30;;;15.00;99.90;;;;;;4936818;29;20557;-69
2023/05/02 08:23:33;;;;;;;8.43;6.00;;;15.00;99.90;;;;;;4936521;29;20179;-69
2023/05/02 08:25:58;;;;;;;6.90;6.20;;;15.10;99.90;;;;;;4936489;29;20437;-70
2023/05/02 08:28:24;;;;;;;5.83;5.27;;;15.10;99.90;;;;;;4936630;29;20273;-70
2023/05/02 08:30:50;;;;;;;6.90;6.13;;;15.30;99.90;;;;;;4936757;29;20234;-70
2023/05/02 08:33:15;;;;;;;5.83;4.50;;;15.30;99.90;;;;;;4936742;29;20266;-70
2023/05/02 08:35:41;;;;;;;6.30;5.57;;;15.30;99.90;;;;;;4936488;29;20663;-70
2023/05/02 08:38:06;;;;;;;6.90;6.30;;;15.40;99.90;;;;;;4936578;29;20177;-70
2023/05/02 08:40:36;;;;;;;7.90;6.10;;;15.50;99.90;;;;;;4936292;29;20188;-70
2023/05/02 08:43:03;;;;;;;9.03;5.83;;;15.50;99.90;;;;;;4936617;29;20177;-70
2023/05/02 08:45:36;;;;;;;6.80;5.87;;;15.40;99.90;;;;;;4936722;29;20926;-69
2023/05/02 08:48:06;;;;;;;6.40;5.90;;;15.40;99.90;;;;;;4936267;29;20505;-70
2023/05/02 08:50:40;;;;;;;7.73;6.80;;;15.40;99.90;;;;;;4936520;29;20474;-69
2023/05/02 08:53:10;;;;;;;5.73;5.07;;;15.40;99.90;;;;;;4936309;29;20411;-71
2023/05/02 08:55:40;;;;;;;7.97;6.73;;;15.60;99.90;;;;;;4948574;29;20474;-69
2023/05/02 08:58:08;;;;;;;7.80;7.10;;;15.70;99.90;;;;;;4955443;29;20427;-68
2023/05/02 09:00:41;;;;;;;7.47;6.03;;;15.90;99.90;;;;;;4938133;29;20426;-69
2023/05/02 09:03:39;;;;;;;9.53;8.00;;;16.10;99.90;;;;;;4937822;29;20432;-71
2023/05/02 09:06:18;;;;;;;9.07;6.20;;;16.30;99.90;;;;;;4912120;29;20455;-70
2023/05/02 09:08:48;;;;;;;8.10;6.73;;;16.40;99.90;;;;;;4936290;29;20413;-69
2023/05/02 09:11:14;;;;;;;6.43;5.83;;;16.60;99.90;;;;;;4936314;29;20392;-69
2023/05/02 09:13:52;;;;;;;6.03;5.43;;;16.80;99.90;;;;;;4936086;29;20945;-69
2023/05/02 09:16:23;;;;;;;5.90;5.30;;;17.10;99.90;;;;;;4919101;29;20417;-69
2023/05/02 09:18:52;;;;;;;6.50;5.73;;;17.60;99.90;;;;;;4936126;29;20384;-69
2023/05/02 09:21:24;;;;;;;6.20;4.97;;;17.90;99.90;;;;;;4952580;29;20783;-70
2023/05/02 09:23:52;;;;;;;8.17;5.87;;;18.40;99.90;;;;;;4935435;29;20396;-70
2023/05/02 09:26:22;;;;;;;6.17;4.97;;;19.40;99.90;;;;;;4936271;29;20903;-69
2023/05/02 09:28:52;;;;;;;7.07;6.37;;;20.10;99.90;;;;;;4919045;29;20512;-69
2023/05/02 09:31:20;;;;;;;6.43;5.83;;;20.50;99.80;;;;;;4918831;29;20429;-69
2023/05/02 09:33:46;;;;;;;6.27;5.73;;;20.30;99.00;;;;;;4935871;29;20424;-69
2023/05/02 09:36:16;;;;;;;5.90;5.33;;;20.10;99.90;;;;;;4935959;29;20422;-69
2023/05/02 09:38:44;;;;;;;5.80;5.30;;;20.10;99.90;;;;;;4935909;29;20178;-69
2023/05/02 09:41:10;;;;;;;5.47;4.93;;;20.10;99.50;;;;;;4935814;29;20471;-69
2023/05/02 09:43:37;;;;;;;6.07;5.57;;;19.90;99.70;;;;;;4935646;29;20814;-69
2023/05/02 09:46:07;;;;;;;5.77;5.27;;;20.10;99.60;;;;;;4941812;29;20460;-69
2023/05/02 09:48:51;;;;;;;6.60;6.00;;;20.50;99.40;;;;;;4954929;29;20439;-69
2023/05/02 09:51:19;;;;;;;5.57;5.10;;;20.60;97.90;;;;;;4955100;29;20379;-69
2023/05/02 09:53:45;;;;;;;7.30;6.63;;;20.90;97.70;;;;;;4954625;28;20436;-69
2023/05/02 09:56:11;;;;;;;8.23;6.43;;;21.70;97.70;;;;;;4954904;29;20399;-69
2023/05/02 09:58:36;;;;;;;7.20;6.47;;;22.90;96.80;;;;;;4954803;29;20631;-69
2023/05/02 10:01:02;;;;;;;6.80;6.10;;;23.90;94.70;;;;;;4929241;29;20476;-69
2023/05/02 10:03:30;;;;;;;7.37;6.60;;;24.70;93.60;;;;;;4935472;29;20256;-69
2023/05/02 10:05:57;;;;;;;7.23;6.53;;;25.30;91.60;;;;;;4935379;29;20455;-69
2023/05/02 10:08:27;;;;;;;6.77;6.03;;;25.20;91.30;;;;;;4935766;29;20410;-69
2023/05/02 10:10:57;;;;;;;8.10;7.40;;;25.70;90.90;;;;;;4918459;29;20888;-69
2023/05/02 10:13:26;;;;;;;8.27;6.77;;;26.30;86.20;;;;;;4918078;29;20796;-69
2023/05/02 10:16:05;;;;;;;7.97;7.27;;;26.00;86.80;;;;;;4935698;29;20965;-69
2023/05/02 10:18:55;;;;;;;7.67;6.43;;;25.30;86.70;;;;;;4936911;29;20516;-69
2023/05/02 10:21:28;;;;;;;7.43;6.73;;;24.30;88.80;;;;;;4939110;29;20433;-69
2023/05/02 10:23:54;;;;;;;5.20;4.80;;;24.10;90.40;;;;;;4938698;29;20392;-69
2023/05/02 10:26:22;;;;;;;8.33;6.37;;;24.40;90.90;;;;;;4938840;29;20439;-68
2023/05/02 10:28:51;;;;;;;6.30;5.67;;;25.00;89.30;;;;;;4921883;29;20422;-69
2023/05/02 10:31:18;;;;;;;6.67;6.07;;;25.40;87.80;;;;;;4938761;29;20747;-69
2023/05/02 10:33:45;;;;;;;7.83;7.13;;;26.00;86.40;;;;;;4938333;29;20392;-69
2023/05/02 10:36:14;;;;;;;7.47;6.77;;;26.20;81.20;;;;;;4938648;29;20417;-69
2023/05/02 10:38:41;;;;;;;7.90;6.67;;;26.00;80.90;;;;;;4938714;29;20739;-69
2023/05/02 10:41:12;;;;;;;7.80;7.00;;;26.00;83.00;;;;;;4938717;29;20384;-69
2023/05/02 10:43:38;;;;;;;7.30;6.60;;;26.10;83.50;;;;;;4945475;29;20432;-69
2023/05/02 10:46:40;;;;;;;8.97;6.93;;;25.80;84.50;;;;;;4957740;28;20434;-69
2023/05/02 10:49:12;;;;;;;7.30;6.60;;;25.70;83.20;;;;;;4957980;29;20754;-69
2023/05/02 10:51:40;;;;;;;8.90;7.63;;;25.70;84.60;;;;;;4957765;29;20401;-69
2023/05/02 10:54:33;;;;;;;8.90;8.00;;;25.70;84.40;;;;;;4957208;28;20440;-69
2023/05/02 10:57:05;;;;;;;14.40;9.70;;;25.40;83.20;;;;;;4954685;29;20767;-68
2023/05/02 10:59:49;;;;;;;8.97;7.80;;;24.50;85.60;;;;;;4940873;29;20776;-69
2023/05/02 11:02:22;;;;;;;9.43;7.80;;;23.80;89.40;;;;;;4918456;29;20485;-68
2023/05/02 11:05:04;;;;;;;7.60;6.80;;;23.80;90.20;;;;;;4952678;28;20473;-68
2023/05/02 11:07:34;;;;;;;7.67;6.20;;;24.30;89.90;;;;;;4957311;29;20907;-68
2023/05/02 11:10:21;;;;;;;7.13;6.53;;;24.30;87.40;;;;;;4957188;29;20376;-68
2023/05/02 11:12:47;;;;;;;7.53;6.70;;;24.10;88.60;;;;;;4947482;29;20399;-68
2023/05/02 11:15:28;;;;;;;7.23;6.60;;;23.60;90.90;;;;;;4956766;28;20407;-68
2023/05/02 11:18:12;;;;;;;6.93;6.30;;;23.40;90.40;;;;;;4957076;29;20378;-68
2023/05/02 11:20:41;;;;;;;6.37;5.77;;;23.30;90.60;;;;;;4957183;29;20457;-68
2023/05/02 11:23:14;;;;;;;8.13;6.60;;;23.20;90.20;;;;;;4956729;29;20406;-69
2023/05/02 11:25:45;;;;;;;8.43;7.63;;;22.90;90.90;;;;;;4956883;28;20432;-68
2023/05/02 11:28:35;;;;;;;7.93;7.13;;;22.70;90.50;;;;;;4939513;29;20799;-69
2023/05/02 11:31:01;;;;;;;6.30;5.80;;;22.20;90.60;;;;;;4937272;29;20412;-68
2023/05/02 11:33:28;;;;;;;7.43;6.73;;;21.90;90.60;;;;;;4937393;29;20440;-63
2023/05/02 11:35:55;;;;;;;6.77;6.17;;;21.70;91.20;;;;;;4937506;29;20233;-63
2023/05/02 11:38:21;;;;;;;7.33;6.63;;;21.50;91.10;;;;;;4937676;29;20428;-63
2023/05/02 11:40:58;;;;;;;6.20;5.27;;;21.00;91.50;;;;;;4937656;29;20421;-62
2023/05/02 11:43:26;;;;;;;15.47;9.83;;;20.60;92.10;;;;;;4936810;29;20885;-68
2023/05/02 11:45:53;;;;;;;5.47;5.07;;;20.40;92.60;;;;;;4936835;29;20512;-67
2023/05/02 11:48:21;;;;;;;6.60;5.80;;;20.20;92.80;;;;;;4920031;29;20459;-69
2023/05/02 11:50:50;;;;;;;9.43;8.60;;;19.90;93.20;;;;;;4919797;29;20440;-64
2023/05/02 11:53:21;;;;;;;6.77;5.80;;;19.60;93.60;;;;;;4936985;29;20392;-63
2023/05/02 11:55:50;;;;;;;5.80;5.20;;;19.40;94.20;;;;;;4937073;29;20416;-64
2023/05/02 11:58:18;;;;;;;6.47;5.80;;;19.20;94.80;;;;;;4955636;29;20436;-64
2023/05/02 12:00:47;;;;;;;7.60;6.13;;;19.20;94.80;;;;;;4955980;29;20398;-61
2023/05/02 12:03:27;;;;;;;7.00;6.30;;;19.10;94.20;;;;;;4955637;29;20398;-66
2023/05/02 12:05:53;;;;;;;6.43;5.93;;;19.10;94.90;;;;;;4955783;29;20449;-66
2023/05/02 12:08:26;;;;;;;6.97;5.47;;;19.30;94.90;;;;;;4956098;29;20417;-66
2023/05/02 12:10:54;;;;;;;6.37;5.50;;;19.40;94.30;;;;;;4955157;29;20428;-65
2023/05/02 12:13:25;;;;;;;5.70;5.10;;;19.70;94.00;;;;;;4954160;29;20416;-64
2023/05/02 12:15:52;;;;;;;7.20;6.50;;;20.00;94.30;;;;;;4936695;29;20449;-66
2023/05/02 12:18:19;;;;;;;6.33;5.73;;;20.30;95.20;;;;;;4936582;29;20391;-66
2023/05/02 12:20:45;;;;;;;7.20;6.40;;;20.50;93.60;;;;;;4936632;29;20388;-65
2023/05/02 12:23:11;;;;;;;5.33;4.93;;;20.70;93.60;;;;;;4936402;29;20938;-65
2023/05/02 12:25:39;;;;;;;9.10;6.20;;;20.90;92.90;;;;;;4954771;28;20443;-65
2023/05/02 12:28:04;;;;;;;7.83;7.13;;;21.00;92.40;;;;;;4955724;29;20408;-65
2023/05/02 12:30:31;;;;;;;6.47;5.53;;;20.90;91.90;;;;;;4955508;29;20392;-64
2023/05/02 12:33:01;;;;;;;9.33;8.30;;;20.70;92.70;;;;;;4955512;29;20383;-65
2023/05/02 12:35:28;;;;;;;4.77;4.30;;;20.20;92.10;;;;;;4955108;28;20834;-65
2023/05/02 12:37:55;;;;;;;6.87;6.17;;;19.60;92.30;;;;;;4949085;29;20504;-65
2023/05/02 12:40:21;;;;;;;7.40;5.47;;;19.00;92.40;;;;;;4936322;29;20539;-65
2023/05/02 12:43:06;;;;;;;6.40;4.90;;;18.70;93.50;;;;;;4936174;29;20496;-65
2023/05/02 12:45:33;;;;;;;9.97;6.27;;;18.30;93.90;;;;;;4936383;29;20477;-65
2023/05/02 12:48:00;;;;;;;7.70;6.93;;;18.00;94.90;;;;;;4939306;29;20507;-63
2023/05/02 12:50:38;;;;;;;7.13;6.43;;;17.80;95.60;;;;;;4954834;29;20399;-65
2023/05/02 12:53:05;;;;;;;9.03;6.03;;;17.70;97.00;;;;;;4955471;29;20423;-64
2023/05/02 12:55:33;;;;;;;7.63;6.67;;;17.70;97.50;;;;;;4955007;28;20436;-65
2023/05/02 12:58:03;;;;;;;9.97;6.23;;;17.60;97.70;;;;;;4955318;29;20384;-64
2023/05/02 13:00:38;;;;;;;7.30;6.17;;;17.60;98.20;;;;;;4955045;29;20388;-65
2023/05/02 13:03:05;;;;;;;9.90;7.97;;;17.80;99.10;;;;;;4940627;29;20928;-64
2023/05/02 13:05:30;;;;;;;10.97;7.87;;;17.90;98.30;;;;;;4933468;29;21019;-64
2023/05/02 13:07:57;;;;;;;10.27;7.27;;;17.80;98.40;;;;;;4934133;29;20416;-64
2023/05/02 13:10:24;;;;;;;7.73;6.93;;;17.70;99.00;;;;;;4934273;29;20178;-64
2023/05/02 13:12:50;;;;;;;10.00;7.27;;;17.60;99.00;;;;;;4934553;29;20526;-64
2023/05/02 13:15:15;;;;;;;8.63;6.67;;;17.60;99.30;;;;;;4933887;29;20520;-63
2023/05/02 13:17:41;;;;;;;10.83;7.73;;;17.70;99.40;;;;;;4946849;29;20428;-64
2023/05/02 13:20:08;;;;;;;9.73;7.97;;;17.80;99.40;;;;;;4955122;29;20185;-64
2023/05/02 13:22:36;;;;;;;7.30;5.47;;;18.00;99.00;;;;;;4955050;29;20421;-64
2023/05/02 13:25:02;;;;;;;9.20;7.17;;;18.10;99.00;;;;;;4954976;28;20472;-64
2023/05/02 13:27:27;;;;;;;7.10;6.20;;;18.20;99.20;;;;;;4955250;29;20417;-64
2023/05/02 13:29:53;;;;;;;7.00;5.97;;;18.20;98.10;;;;;;4955181;29;20878;-64
2023/05/02 13:32:20;;;;;;;8.20;6.27;;;18.10;97.40;;;;;;4937252;29;20177;-64
2023/05/02 13:34:46;;;;;;;6.47;5.83;;;18.20;97.60;;;;;;4935396;29;20232;-64
2023/05/02 13:37:11;;;;;;;7.90;5.53;;;18.40;98.20;;;;;;4935850;29;20409;-63
2023/05/02 13:39:37;;;;;;;7.57;6.00;;;18.60;96.90;;;;;;4919025;29;20201;-65
2023/05/02 13:42:03;;;;;;;7.10;5.63;;;18.70;97.10;;;;;;4935725;29;20178;-64
2023/05/02 13:44:29;;;;;;;7.10;5.60;;;19.00;96.30;;;;;;4935606;29;20198;-64
2023/05/02 13:46:55;;;;;;;9.87;6.17;;;19.10;96.40;;;;;;4936068;29;20465;-64
2023/05/02 13:49:21;;;;;;;5.40;4.70;;;19.30;95.60;;;;;;4935911;29;20465;-64
2023/05/02 13:51:47;;;;;;;6.20;5.60;;;19.50;95.70;;;;;;4936045;29;20213;-64
2023/05/02 13:54:14;;;;;;;6.97;4.87;;;19.70;93.90;;;;;;4937657;29;20429;-64
2023/05/02 13:56:39;;;;;;;5.63;4.83;;;19.80;94.40;;;;;;4922745;29;20644;-64
2023/05/02 13:59:06;;;;;;;5.63;5.10;;;20.00;94.90;;;;;;4947577;29;20442;-65
2023/05/02 14:01:31;;;;;;;5.97;4.37;;;20.10;94.70;;;;;;4958576;29;20416;-65
2023/05/02 14:03:57;;;;;;;6.07;5.53;;;20.20;93.90;;;;;;4958008;28;20420;-65
2023/05/02 14:06:22;;;;;;;4.97;4.13;;;20.10;94.50;;;;;;4958277;29;20244;-64
2023/05/02 14:08:50;;;;;;;6.67;5.27;;;20.20;95.10;;;;;;4958651;29;20177;-64
2023/05/02 14:11:15;;;;;;;4.27;3.90;;;20.20;93.50;;;;;;4958597;29;20181;-64
2023/05/02 14:13:41;;;;;;;4.57;4.10;;;20.10;93.00;;;;;;4943605;29;20935;-63
2023/05/02 14:16:07;;;;;;;5.87;4.10;;;19.90;92.60;;;;;;4940965;29;20214;-63
2023/05/02 14:18:32;;;;;;;4.37;3.70;;;19.60;92.60;;;;;;4939433;29;20628;-65
2023/05/02 14:20:58;;;;;;;5.13;4.57;;;19.20;92.80;;;;;;4943246;29;20648;-64
2023/05/02 14:23:27;;;;;;;4.53;4.13;;;18.90;93.60;;;;;;4943964;29;20256;-64
2023/05/02 14:25:52;;;;;;;5.03;4.50;;;18.80;94.50;;;;;;4944996;29;20439;-64
2023/05/02 14:28:18;;;;;;;4.17;3.77;;;18.60;93.90;;;;;;4942372;29;20431;-64
2023/05/02 14:30:44;;;;;;;4.97;3.83;;;18.40;94.80;;;;;;4942851;29;20184;-64
2023/05/02 14:33:09;;;;;;;5.07;3.97;;;18.30;94.40;;;;;;4942584;29;20177;-65
2023/05/02 14:35:35;;;;;;;4.80;4.20;;;18.20;94.30;;;;;;4943552;29;20205;-64
2023/05/02 14:38:01;;;;;;;6.03;4.87;;;18.10;94.80;;;;;;4942560;29;20548;-64
2023/05/02 14:40:26;;;;;;;4.20;3.23;;;18.10;95.30;;;;;;4938989;29;20525;-65
2023/05/02 14:42:52;;;;;;;3.40;3.10;;;18.00;94.00;;;;;;4939338;29;20191;-64
2023/05/02 14:45:17;;;;;;;4.30;3.90;;;17.90;93.40;;;;;;4938407;29;20253;-63
2023/05/02 14:47:43;;;;;;;5.70;3.70;;;17.90;93.70;;;;;;4951425;29;20179;-64
2023/05/02 14:50:09;;;;;;;4.93;4.10;;;17.90;93.90;;;;;;4946025;29;20177;-63
2023/05/02 14:52:34;;;;;;;4.03;3.43;;;18.00;94.30;;;;;;4940974;29;20509;-63
2023/05/02 14:55:01;;;;;;;3.40;3.10;;;18.00;94.80;;;;;;4941636;29;20437;-63
2023/05/02 14:57:27;;;;;;;3.83;3.47;;;18.20;95.30;;;;;;4942024;29;20185;-65
2023/05/02 14:59:53;;;;;;;5.00;3.60;;;18.20;93.10;;;;;;4939582;29;20425;-64
2023/05/02 15:02:20;;;;;;;4.37;3.20;;;18.20;93.80;;;;;;4921062;29;20943;-63
2023/05/02 15:04:46;;;;;;;4.40;2.83;;;18.20;93.20;;;;;;4937682;29;20423;-64
2023/05/02 15:07:11;;;;;;;2.93;2.70;;;18.30;93.40;;;;;;4937961;29;20408;-64
2023/05/02 15:09:37;;;;;;;5.53;3.50;;;18.40;93.10;;;;;;4938152;29;20191;-64
2023/05/02 15:12:02;;;;;;;3.87;3.47;;;18.40;92.80;;;;;;4949048;29;20699;-64
2023/05/02 15:14:28;;;;;;;2.97;2.70;;;18.40;92.80;;;;;;4940125;29;20204;-64
2023/05/02 15:16:54;;;;;;;2.90;2.37;;;18.50;94.10;;;;;;4938093;29;20210;-63
2023/05/02 15:19:24;;;;;;;2.93;2.73;;;18.40;91.80;;;;;;4937922;29;20177;-63
2023/05/02 15:21:52;;;;;;;2.83;2.57;;;18.40;91.70;;;;;;4938253;29;20186;-64
2023/05/02 15:24:17;;;;;;;2.67;2.37;;;18.40;91.40;;;;;;4937648;29;20491;-64
2023/05/02 15:26:44;;;;;;;3.00;1.90;;;18.40;90.90;;;;;;4948212;29;21066;-64
2023/05/02 15:29:09;;;;;;;2.70;2.50;;;18.30;90.90;;;;;;4956930;29;20415;-64
2023/05/02 15:31:35;;;;;;;2.10;1.90;;;18.30;90.60;;;;;;4956954;29;20450;-64
2023/05/02 15:34:02;;;;;;;2.10;1.90;;;18.40;91.50;;;;;;4956330;28;20575;-63
2023/05/02 15:36:28;;;;;;;2.30;1.87;;;18.40;91.50;;;;;;4956818;29;20416;-64
2023/05/02 15:38:55;;;;;;;2.13;2.03;;;18.40;91.60;;;;;;4956828;29;20398;-64
2023/05/02 15:41:20;;;;;;;2.73;2.53;;;18.30;90.50;;;;;;4939497;29;20432;-64
2023/05/02 15:43:46;;;;;;;2.90;2.70;;;18.30;92.00;;;;;;4936975;29;20842;-64
2023/05/02 15:46:11;;;;;;;3.63;3.00;;;18.20;93.20;;;;;;4937227;29;20233;-65
2023/05/02 15:48:37;;;;;;;2.60;2.40;;;18.20;93.50;;;;;;4937746;29;20177;-63
2023/05/02 15:51:04;;;;;;;2.53;2.33;;;18.10;92.00;;;;;;4937416;29;20188;-64
2023/05/02 15:53:30;;;;;;;3.87;3.57;;;18.00;91.70;;;;;;4919797;29;20232;-63
2023/05/02 15:55:55;;;;;;;2.90;2.60;;;17.90;92.00;;;;;;4952537;29;20781;-64
2023/05/02 15:58:21;;;;;;;3.37;2.30;;;17.80;92.60;;;;;;4956428;29;20399;-63
2023/05/02 16:00:47;;;;;;;2.80;2.60;;;17.70;92.80;;;;;;4939272;29;20311;-65
2023/05/02 16:03:14;;;;;;;2.27;2.07;;;17.70;92.90;;;;;;4956002;29;20424;-64
2023/05/02 16:05:39;;;;;;;3.67;2.50;;;17.60;92.80;;;;;;4955791;28;20217;-64
2023/05/02 16:08:05;;;;;;;3.30;2.80;;;17.60;93.10;;;;;;4953582;29;20554;-63
2023/05/02 16:10:31;;;;;;;2.57;2.37;;;17.60;93.20;;;;;;4937131;29;20168;-63
2023/05/02 16:12:56;;;;;;;2.83;2.33;;;17.50;93.10;;;;;;4936881;29;20643;-64
2023/05/02 16:15:23;;;;;;;2.70;2.50;;;17.50;92.50;;;;;;4936293;29;20205;-64
2023/05/02 16:17:49;;;;;;;2.90;2.40;;;17.40;92.20;;;;;;4936553;29;20266;-64
2023/05/02 16:20:16;;;;;;;2.67;2.43;;;17.30;92.60;;;;;;4937006;29;20432;-63
2023/05/02 16:22:44;;;;;;;2.87;2.67;;;17.30;92.50;;;;;;4936908;29;20751;-64
2023/05/02 16:25:10;;;;;;;2.60;2.40;;;17.20;92.80;;;;;;4936354;29;21031;-64
2023/05/02 16:27:35;;;;;;;2.60;1.50;;;17.10;92.70;;;;;;4936157;29;20412;-65
2023/05/02 16:30:02;;;;;;;1.87;1.77;;;17.10;93.10;;;;;;4936621;29;20478;-64
2023/05/02 16:32:28;;;;;;;3.17;2.40;;;17.10;92.60;;;;;;4936994;29;20721;-64
2023/05/02 16:34:53;;;;;;;1.63;1.50;;;17.00;92.60;;;;;;4936065;29;20409;-62
2023/05/02 16:37:19;;;;;;;4.83;1.80;;;17.00;92.70;;;;;;4936400;29;20610;-70
2023/05/02 16:39:45;;;;;;;3.30;2.50;;;17.00;92.90;;;;;;4919224;29;20186;-72
2023/05/02 16:42:11;;;;;;;1.80;1.70;;;17.00;93.20;;;;;;4936354;29;20562;-74
2023/05/02 16:44:37;;;;;;;1.50;1.40;;;17.00;93.50;;;;;;4918529;29;20208;-73
2023/05/02 16:47:02;;;;;;;1.97;1.87;;;17.00;92.80;;;;;;4936447;29;20474;-71
2023/05/02 16:49:28;;;;;;;1.97;1.77;;;17.00;92.50;;;;;;4949538;29;20185;-71
2023/05/02 16:51:54;;;;;;;1.77;1.67;;;17.00;91.50;;;;;;4940548;29;20183;-72
2023/05/02 16:54:20;;;;;;;1.80;1.50;;;16.90;91.50;;;;;;4950819;28;20200;-68